Terminal Aerodrome Forecast
Issued by NWS Wilmington, OH

Current Version | Previous Version | Graphics & Text | Print | Product List | Glossary On
Versions: 1 2 3 4 5 6 7 8 9 10 11 12 13 14 15 16 17 18 19 20 21 22 23 24 25
000
FTUS41 KILN 091141
TAFCVG
TAF
KCVG 091141Z 0912/1018 20008KT P6SM OVC080
     FM091500 21010KT P6SM VCSH OVC070
     FM091900 25012G20KT P6SM -SHSN OVC025
      TEMPO 0921/1001 2SM -SHSN OVC018
     FM100100 29014G22KT P6SM VCSH BKN025
     FM100600 27009KT P6SM BKN035
     FM101100 24012KT P6SM SCT150=

USA.gov is the U.S. government's official web portal to all federal, state and local government web resources and services.